EmailTwitter


Surface observations / United Kingdom / EGUB (03658)

Regions: Quebec | Canada | USA | Europe | France | UK | Elsewhere
Station
Display
Info & Location for EGUB (03658) | Help decoding METAR

Weather Conditions observed on 2017/10/17 at 17:50 UTC at BENSON RAF, UK (EGUB)

Temperature: 11.0 Celsius.

Dewpoint: 10.0 Celsius.

Relative Humidity: 94%

Winds: Southeast at 7 km/h or 4 knots.

Mean Sea level Pressure: 101.70 kilopascals.

Coded METAR:

EGUB 171750Z 15004KT CAVOK 11/10 Q1017 BLU TEMPO 7000 RA WHT=